Forside
METAR-TAF:

METAR-TAF

Lufthavne :

Cairo Regional Airport

Cairo, Illinois, USA

Breddekreds: 37-03-52N, længdekreds: 089-13-10W, højde: 98 m

Aktuelle vejr

Denne rapport blev lavet for 19 minutter siden, kl. 08:35 UTC
Vind stille
Temperatur 1°C
Fugtighed 100%
Tryk 1024 hPa
Sigt: 16.1 km
skyfri

METAR: KCIR 220835Z AUTO 00000KT 10SM CLR 01/01 A3024 RMK AO2 T00090009

Tid: 03:54 (08:54 UTC)


TAF: fraværende

Vejrobservationer og prognoser fra mere end 4000 lufthavne (METAR og TAF).

De gule og røde prikker repræsenterer de meteorologiske stationer.

Flyt musen over at se navnet på stationen.

Så klik over at se vejr observationer og prognoser.

At skifte det kort: Klik på de grønne knapper med et sort kors for at zoome ind; på den grønne knap med en bindestreg for at zoome ud; eller på de grønne pile for tilstødende kort.


METAR-TAF: